Time;durP1;ratioP1;P1;durP2;ratioP2;P2;SDS_P1;SDS_P2;PMS_P1;PMS_P2;Temp;Humidity;BMP_temperature;BMP_pressure;BME280_temperature;BME280_humidity;BME280_pressure;Samples;Min_cycle;Max_cycle;Signal;HPM_P1;HPM_P2
2023/03/11 00:01:00;;;;;;;4.13;2.72;;;;;;;10.26;70.46;93218.16;5105952;28;20080;-76
2023/03/11 00:03:27;;;;;;;3.35;1.20;;;;;;;10.11;71.03;93204.44;5106370;28;20314;-76
2023/03/11 00:05:54;;;;;;;2.72;0.82;;;;;;;9.97;71.03;93194.22;5107317;28;20559;-76
2023/03/11 00:08:22;;;;;;;2.42;0.80;;;;;;;9.95;71.14;93189.22;5105571;28;20053;-75
2023/03/11 00:10:52;;;;;;;1.15;0.60;;;;;;;9.94;71.16;93203.44;5107515;27;20110;-76
2023/03/11 00:13:18;;;;;;;1.08;0.60;;;;;;;9.85;71.00;93190.53;5105650;28;20030;-77
2023/03/11 00:15:46;;;;;;;1.33;0.60;;;;;;;9.85;70.90;93190.53;5108470;28;20020;-77
2023/03/11 00:18:11;;;;;;;1.10;0.40;;;;;;;9.88;70.40;93181.38;5087886;28;20119;-77
2023/03/11 00:20:41;;;;;;;0.70;0.32;;;;;;;9.92;70.03;93181.94;5106642;28;20106;-76
2023/03/11 00:23:07;;;;;;;0.57;0.32;;;;;;;9.95;69.68;93180.97;5107325;28;20689;-76
2023/03/11 00:25:34;;;;;;;1.38;0.40;;;;;;;9.91;70.06;93168.69;5105483;28;20024;-76
2023/03/11 00:28:00;;;;;;;1.05;0.50;;;;;;;9.95;70.44;93169.25;5107380;28;20062;-76
2023/03/11 00:30:27;;;;;;;1.27;0.50;;;;;;;10.00;69.86;93166.59;5104921;28;20071;-76
2023/03/11 00:32:54;;;;;;;0.85;0.50;;;;;;;10.04;69.96;93172.66;5107366;28;20038;-75
2023/03/11 00:35:22;;;;;;;0.50;0.40;;;;;;;10.12;69.70;93162.03;5105141;28;20028;-76
2023/03/11 00:37:52;;;;;;;1.38;1.27;;;;;;;10.22;69.44;93159.94;5107357;28;20498;-76
2023/03/11 00:40:18;;;;;;;0.88;0.40;;;;;;;10.30;69.15;93170.06;5105232;28;20027;-76
2023/03/11 00:42:44;;;;;;;0.60;0.50;;;;;;;10.35;68.92;93157.66;5105076;28;20077;-76
2023/03/11 00:45:10;;;;;;;0.55;0.50;;;;;;;10.34;68.93;93154.16;5105419;28;20047;-75
2023/03/11 00:47:35;;;;;;;1.08;0.50;;;;;;;10.36;68.47;93150.91;5087608;28;20012;-75
2023/03/11 00:50:01;;;;;;;1.65;0.55;;;;;;;10.38;68.52;93148.47;5105506;28;20032;-75
2023/03/11 00:52:27;;;;;;;0.60;0.40;;;;;;;10.43;67.95;93141.50;5104352;28;20047;-76
2023/03/11 00:54:54;;;;;;;0.77;0.57;;;;;;;10.45;68.09;93142.56;5106999;28;20030;-75
2023/03/11 00:57:19;;;;;;;0.85;0.50;;;;;;;10.44;67.51;93130.06;5087603;28;20027;-76
2023/03/11 00:59:44;;;;;;;1.02;0.50;;;;;;;10.52;67.90;93127.66;5106481;28;20020;-77
2023/03/11 01:02:10;;;;;;;1.42;0.45;;;;;;;10.50;67.85;93113.66;5106532;28;20034;-75
2023/03/11 01:04:35;;;;;;;2.28;0.60;;;;;;;10.59;67.73;93117.00;5105871;28;20049;-75
2023/03/11 01:07:01;;;;;;;1.17;0.57;;;;;;;10.67;67.76;93109.13;5106581;28;20032;-76
2023/03/11 01:09:26;;;;;;;1.15;0.63;;;;;;;10.70;67.59;93118.38;5105764;28;20083;-76
2023/03/11 01:11:53;;;;;;;0.73;0.50;;;;;;;10.71;67.19;93112.41;5104901;28;20107;-76
2023/03/11 01:14:18;;;;;;;1.33;0.52;;;;;;;10.76;67.30;93119.19;5087514;28;20378;-76
2023/03/11 01:16:43;;;;;;;3.00;0.80;;;;;;;10.80;66.43;93117.00;5105024;28;20409;-75
2023/03/11 01:19:09;;;;;;;1.52;0.82;;;;;;;10.78;66.82;93095.50;5105692;28;20491;-76
2023/03/11 01:21:34;;;;;;;1.52;0.60;;;;;;;10.74;67.59;93085.97;5105950;28;20020;-76
2023/03/11 01:24:00;;;;;;;1.13;0.63;;;;;;;10.70;68.22;93082.66;5106552;28;20059;-76
2023/03/11 01:26:25;;;;;;;1.17;0.70;;;;;;;10.71;68.33;93079.41;5105768;28;20095;-75
2023/03/11 01:28:50;;;;;;;1.00;0.50;;;;;;;10.66;68.03;93077.34;5106015;28;20023;-76
2023/03/11 01:31:16;;;;;;;2.08;0.93;;;;;;;10.62;68.31;93061.09;5103627;28;20038;-75
2023/03/11 01:33:41;;;;;;;1.60;0.80;;;;;;;10.68;68.50;93063.91;5105966;28;20214;-75
2023/03/11 01:36:07;;;;;;;1.55;0.68;;;;;;;10.69;68.13;93053.66;5103937;28;20019;-76
2023/03/11 01:38:32;;;;;;;1.17;0.90;;;;;;;10.69;68.41;93045.44;5104420;28;20024;-75
2023/03/11 01:40:58;;;;;;;1.70;0.98;;;;;;;10.71;68.28;93040.19;5104721;28;20079;-77
2023/03/11 01:43:35;;;;;;;2.42;1.10;;;;;;;10.73;68.14;93056.97;5105685;28;20055;-76
2023/03/11 01:46:01;;;;;;;3.60;1.20;;;;;;;10.72;67.90;93056.19;5105553;28;20215;-76
2023/03/11 01:48:27;;;;;;;1.92;1.08;;;;;;;10.74;67.51;93072.97;5105327;28;20024;-77
2023/03/11 01:50:53;;;;;;;3.40;1.42;;;;;;;10.65;67.90;93081.34;5104153;28;20050;-77
2023/03/11 01:53:19;;;;;;;3.83;2.30;;;;;;;10.62;67.79;93085.06;5103664;28;20500;-76
2023/03/11 01:55:45;;;;;;;5.43;2.28;;;;;;;10.51;68.17;93091.19;5104488;28;20490;-75
2023/03/11 01:58:14;;;;;;;3.25;1.50;;;;;;;10.49;67.92;93093.63;5103569;28;20069;-75
2023/03/11 02:00:41;;;;;;;2.85;1.67;;;;;;;10.43;68.37;93086.56;5104909;28;20030;-76
2023/03/11 02:03:37;;;;;;;1.92;1.15;;;;;;;10.31;68.62;93089.16;5087180;28;20119;-76
2023/03/11 02:06:05;;;;;;;2.25;0.95;;;;;;;10.19;68.86;93092.97;5045137;28;20037;-74
2023/03/11 02:08:33;;;;;;;2.50;1.00;;;;;;;10.14;69.10;93092.91;5046685;28;20036;-74
2023/03/11 02:10:59;;;;;;;2.72;0.90;;;;;;;10.02;69.33;93079.00;5061304;28;20490;-76
2023/03/11 02:13:25;;;;;;;1.83;0.95;;;;;;;9.93;69.40;93097.63;5045520;28;20025;-76
2023/03/11 02:15:51;;;;;;;1.75;0.80;;;;;;;9.91;69.06;93095.31;5045116;28;20115;-75
2023/03/11 02:18:19;;;;;;;2.97;0.82;;;;;;;9.94;68.91;93101.88;5061856;28;20124;-75
2023/03/11 02:21:05;;;;;;;1.98;0.80;;;;;;;9.95;68.47;93103.38;5045335;28;20024;-75
2023/03/11 02:23:54;;;;;;;1.25;0.90;;;;;;;9.90;68.25;93102.06;5044887;28;20044;-75
2023/03/11 02:26:27;;;;;;;1.15;0.77;;;;;;;9.89;67.93;93110.78;5045520;28;20032;-74
2023/03/11 02:28:52;;;;;;;1.65;0.90;;;;;;;9.86;68.20;93126.19;5028317;28;20044;-76
2023/03/11 02:31:18;;;;;;;1.90;1.10;;;;;;;9.88;68.24;93123.00;5028195;28;20141;-75
2023/03/11 02:33:45;;;;;;;1.63;1.17;;;;;;;9.93;68.53;93123.06;5045450;28;20032;-76
2023/03/11 02:36:38;;;;;;;2.95;0.95;;;;;;;9.96;68.60;93129.59;5061533;28;20048;-76
2023/03/11 02:39:04;;;;;;;1.45;0.90;;;;;;;9.99;68.53;93123.16;5061930;28;20533;-74
2023/03/11 02:41:31;;;;;;;2.28;1.10;;;;;;;10.01;68.54;93135.16;5066080;28;20044;-76
2023/03/11 02:43:57;;;;;;;1.27;0.90;;;;;;;10.04;68.26;93119.75;5107401;28;20027;-76
2023/03/11 02:46:23;;;;;;;2.50;1.00;;;;;;;10.03;68.09;93115.47;5107561;28;20024;-75
2023/03/11 02:48:48;;;;;;;2.58;0.98;;;;;;;9.97;68.14;93122.84;5108514;28;20034;-77
2023/03/11 02:51:14;;;;;;;1.25;0.90;;;;;;;10.03;67.66;93113.47;5108875;28;20034;-76
2023/03/11 02:53:50;;;;;;;5.55;1.35;;;;;;;10.00;67.20;93119.16;5108863;28;20038;-77
2023/03/11 02:56:16;;;;;;;3.13;1.00;;;;;;;9.97;66.12;93100.91;5107828;28;20092;-75
2023/03/11 02:58:41;;;;;;;5.45;1.08;;;;;;;9.99;65.63;93106.69;5108433;28;20573;-75
2023/03/11 03:01:07;;;;;;;3.97;0.98;;;;;;;10.01;65.84;93104.22;5107231;28;20020;-76
2023/03/11 03:03:32;;;;;;;1.48;0.90;;;;;;;10.07;65.53;93108.53;5107528;28;20397;-76
2023/03/11 03:05:57;;;;;;;4.55;1.00;;;;;;;10.10;65.25;93110.34;5108099;28;20107;-75
2023/03/11 03:08:23;;;;;;;1.85;0.90;;;;;;;10.16;64.81;93115.91;5109022;28;20019;-75
2023/03/11 03:10:48;;;;;;;3.03;0.90;;;;;;;10.18;64.87;93112.69;5108114;28;20032;-75
2023/03/11 03:13:14;;;;;;;3.60;1.00;;;;;;;10.20;64.93;93124.69;5109429;28;20126;-76
2023/03/11 03:15:39;;;;;;;1.95;1.10;;;;;;;10.18;65.02;93120.91;5108222;28;20043;-76
2023/03/11 03:18:05;;;;;;;4.28;1.85;;;;;;;10.26;65.15;93116.56;5107001;28;20023;-75
2023/03/11 03:20:30;;;;;;;2.10;0.95;;;;;;;10.33;65.15;93124.41;5106573;28;20097;-76
2023/03/11 03:22:56;;;;;;;1.90;0.70;;;;;;;10.32;65.02;93122.88;5106710;28;20024;-76
2023/03/11 03:25:21;;;;;;;2.17;0.90;;;;;;;10.35;65.16;93119.19;5108561;28;20045;-76
2023/03/11 03:27:47;;;;;;;2.17;1.10;;;;;;;10.42;64.93;93126.25;5107866;28;20433;-76
2023/03/11 03:30:12;;;;;;;2.92;1.02;;;;;;;10.51;65.04;93120.66;5107979;28;20160;-76
2023/03/11 03:32:38;;;;;;;1.83;1.00;;;;;;;10.40;64.99;93124.00;5106354;28;20050;-77
2023/03/11 03:35:04;;;;;;;1.60;0.82;;;;;;;10.48;63.93;93127.84;5106527;28;20024;-76
2023/03/11 03:37:32;;;;;;;1.58;0.80;;;;;;;10.54;63.62;93125.16;5106627;28;20083;-75
2023/03/11 03:39:57;;;;;;;1.52;0.82;;;;;;;10.61;63.61;93125.53;5107938;28;20024;-76
2023/03/11 03:42:24;;;;;;;1.52;1.00;;;;;;;10.57;63.78;93127.72;5107378;28;20051;-76
2023/03/11 03:44:50;;;;;;;1.15;0.70;;;;;;;10.58;61.95;93120.25;5106116;28;20031;-77
2023/03/11 03:47:16;;;;;;;1.33;0.70;;;;;;;10.58;61.01;93117.50;5106567;28;20083;-75
2023/03/11 03:49:41;;;;;;;1.48;0.60;;;;;;;10.63;61.27;93119.56;5107558;28;20023;-75
2023/03/11 03:52:07;;;;;;;1.63;0.90;;;;;;;10.62;61.90;93112.56;5107808;28;20031;-76
2023/03/11 03:54:33;;;;;;;2.55;0.70;;;;;;;10.71;61.78;93109.66;5107346;28;20407;-76
2023/03/11 03:56:58;;;;;;;0.70;0.47;;;;;;;10.77;61.47;93110.47;5106662;28;20543;-76
2023/03/11 03:59:23;;;;;;;1.15;0.70;;;;;;;10.82;61.42;93114.53;5107163;28;20028;-76
2023/03/11 04:01:49;;;;;;;1.08;0.55;;;;;;;10.76;60.24;93099.97;5106186;28;20020;-76
2023/03/11 04:04:14;;;;;;;1.45;0.70;;;;;;;10.75;60.49;93115.69;5106257;28;20040;-76
2023/03/11 04:06:41;;;;;;;1.50;0.80;;;;;;;10.80;60.37;93111.50;5107176;28;20027;-75
2023/03/11 04:09:06;;;;;;;0.85;0.55;;;;;;;10.84;60.22;93093.56;5089047;28;20024;-77
2023/03/11 04:11:32;;;;;;;0.60;0.50;;;;;;;10.80;59.66;93103.25;5105741;28;20028;-76
2023/03/11 04:13:57;;;;;;;0.98;0.70;;;;;;;10.79;60.00;93102.50;5107404;28;20488;-76
2023/03/11 04:16:23;;;;;;;0.95;0.55;;;;;;;10.84;60.48;93117.56;5105492;28;20104;-76
2023/03/11 04:18:49;;;;;;;0.80;0.57;;;;;;;10.76;61.02;93113.72;5090016;28;20489;-76
2023/03/11 04:21:15;;;;;;;1.90;0.85;;;;;;;10.86;61.82;93121.31;5105344;28;20039;-76
2023/03/11 04:23:40;;;;;;;1.45;0.85;;;;;;;10.88;61.92;93116.09;5105857;28;20048;-76
2023/03/11 04:26:06;;;;;;;2.25;0.90;;;;;;;10.85;61.62;93122.56;5105869;28;20035;-76
2023/03/11 04:28:31;;;;;;;1.33;0.82;;;;;;;10.86;60.61;93118.59;5106768;28;20020;-76
2023/03/11 04:30:57;;;;;;;1.80;0.70;;;;;;;10.82;59.50;93122.78;5105679;28;20039;-76
2023/03/11 04:33:22;;;;;;;1.42;0.45;;;;;;;10.83;59.03;93114.03;5088352;28;20024;-75
2023/03/11 04:35:48;;;;;;;1.60;0.40;;;;;;;10.82;59.71;93120.78;5107272;28;20020;-76
2023/03/11 04:38:13;;;;;;;0.50;0.40;;;;;;;10.79;59.04;93124.50;5104714;28;20027;-76
2023/03/11 04:40:39;;;;;;;0.65;0.50;;;;;;;10.77;58.76;93118.72;5106493;28;20023;-73
2023/03/11 04:43:04;;;;;;;0.50;0.40;;;;;;;10.86;58.27;93118.59;5105452;28;20056;-76
2023/03/11 04:45:30;;;;;;;0.88;0.52;;;;;;;10.75;58.72;93114.94;5105986;28;20023;-76
2023/03/11 04:47:55;;;;;;;1.90;0.50;;;;;;;10.80;59.01;93108.75;5106547;28;20133;-74
2023/03/11 04:50:21;;;;;;;0.75;0.40;;;;;;;10.82;58.83;93120.78;5106089;27;20702;-76
2023/03/11 04:52:46;;;;;;;0.55;0.40;;;;;;;10.90;57.72;93116.38;5106669;28;20019;-76
2023/03/11 04:55:12;;;;;;;1.00;0.55;;;;;;;10.93;57.82;93117.41;5104765;28;20620;-75
2023/03/11 04:57:39;;;;;;;0.70;0.50;;;;;;;10.84;58.36;93123.81;5106390;28;20024;-75
2023/03/11 05:00:09;;;;;;;1.10;0.60;;;;;;;10.89;58.63;93131.34;5105109;28;20049;-76
2023/03/11 05:02:34;;;;;;;0.65;0.43;;;;;;;10.95;59.50;93136.16;5104657;28;20027;-75
2023/03/11 05:05:00;;;;;;;1.52;0.60;;;;;;;10.96;60.02;93141.19;5104418;28;20031;-76
2023/03/11 05:07:25;;;;;;;1.90;0.73;;;;;;;10.99;59.88;93142.22;5105943;28;20035;-76
2023/03/11 05:09:51;;;;;;;1.10;0.65;;;;;;;10.97;58.34;93145.44;5087948;28;20133;-75
2023/03/11 05:12:16;;;;;;;1.35;0.77;;;;;;;11.00;58.58;93158.22;5104380;28;20035;-75
2023/03/11 05:14:42;;;;;;;1.08;0.60;;;;;;;11.03;57.73;93151.00;5104579;28;20020;-76
2023/03/11 05:17:08;;;;;;;0.85;0.50;;;;;;;11.07;57.47;93157.06;5105551;28;20027;-75
2023/03/11 05:19:34;;;;;;;3.95;1.65;;;;;;;11.10;57.36;93156.09;5105899;28;20406;-75
2023/03/11 05:22:01;;;;;;;2.10;0.80;;;;;;;11.09;57.72;93168.31;5105924;28;20027;-75
2023/03/11 05:24:27;;;;;;;1.42;0.90;;;;;;;11.03;58.80;93164.75;5105754;28;20027;-77
2023/03/11 05:26:53;;;;;;;2.08;0.85;;;;;;;11.01;59.16;93169.97;5104879;28;20023;-77
2023/03/11 05:29:19;;;;;;;1.73;1.10;;;;;;;11.05;59.84;93181.53;5104545;28;20032;-76
2023/03/11 05:31:45;;;;;;;4.10;1.48;;;;;;;10.96;60.03;93178.94;5104409;28;20031;-75
2023/03/11 05:34:11;;;;;;;2.42;0.90;;;;;;;10.94;59.14;93178.63;5103997;28;20036;-74
2023/03/11 05:36:37;;;;;;;2.22;1.02;;;;;;;10.96;59.42;93167.94;5104293;28;20024;-76
2023/03/11 05:39:02;;;;;;;1.95;1.17;;;;;;;11.03;59.25;93186.75;5103860;28;20015;-76
2023/03/11 05:41:27;;;;;;;3.15;1.20;;;;;;;10.88;59.38;93182.06;5104936;28;20128;-75
2023/03/11 05:43:53;;;;;;;3.08;1.08;;;;;;;10.90;58.33;93185.13;5105499;28;20020;-74
2023/03/11 05:46:19;;;;;;;2.08;0.60;;;;;;;10.90;57.13;93187.09;5105150;28;20895;-77
2023/03/11 05:48:45;;;;;;;1.52;0.80;;;;;;;10.89;57.34;93189.06;5103917;28;20535;-76
2023/03/11 05:51:11;;;;;;;1.85;0.98;;;;;;;10.91;58.42;93196.88;5105006;28;20035;-76
2023/03/11 05:53:36;;;;;;;1.83;0.75;;;;;;;10.92;58.24;93200.38;5086833;28;20024;-75
2023/03/11 05:56:02;;;;;;;1.60;0.80;;;;;;;10.96;58.86;93195.44;5105256;28;20040;-77
2023/03/11 05:58:29;;;;;;;1.45;0.75;;;;;;;10.92;59.42;93205.88;5104167;28;20032;-75
2023/03/11 06:00:54;;;;;;;1.65;1.23;;;;;;;10.92;59.19;93216.88;5104922;28;20110;-77
2023/03/11 06:03:20;;;;;;;3.63;0.90;;;;;;;10.94;59.13;93220.63;5105432;28;20103;-77
2023/03/11 06:05:47;;;;;;;2.38;0.80;;;;;;;10.96;58.24;93214.66;5103562;28;20122;-76
2023/03/11 06:08:12;;;;;;;2.15;0.70;;;;;;;10.98;58.09;93210.19;5086491;28;20446;-76
2023/03/11 06:10:38;;;;;;;1.77;1.10;;;;;;;11.03;58.25;93225.25;5105188;28;20688;-75
2023/03/11 06:13:03;;;;;;;2.95;0.90;;;;;;;11.02;58.21;93226.50;5104782;28;20382;-76
2023/03/11 06:15:29;;;;;;;2.25;1.13;;;;;;;11.06;58.53;93233.28;5105292;28;20100;-76
2023/03/11 06:17:54;;;;;;;1.60;0.82;;;;;;;11.09;58.96;93228.81;5102272;28;20024;-77
2023/03/11 06:20:20;;;;;;;1.25;0.90;;;;;;;11.12;58.51;93231.34;5103751;28;20107;-77
2023/03/11 06:22:48;;;;;;;3.28;1.10;;;;;;;11.14;58.84;93231.66;5103470;28;20027;-76
2023/03/11 06:25:14;;;;;;;4.88;2.10;;;;;;;11.20;59.18;93237.22;5103534;28;20032;-76
2023/03/11 06:27:39;;;;;;;4.68;1.27;;;;;;;11.21;59.27;93237.97;5103637;28;20077;-76
2023/03/11 06:30:06;;;;;;;5.25;1.23;;;;;;;11.23;59.26;93227.97;5106741;28;20032;-75
2023/03/11 06:32:33;;;;;;;6.07;1.27;;;;;;;11.30;59.19;93232.34;5103377;28;20096;-75
2023/03/11 06:34:58;;;;;;;3.15;1.50;;;;;;;11.37;59.08;93234.66;5103195;28;20028;-75
2023/03/11 06:37:24;;;;;;;5.00;1.65;;;;;;;11.42;59.37;93240.22;5105056;28;20392;-74
2023/03/11 06:39:53;;;;;;;3.33;1.98;;;;;;;11.49;59.72;93241.03;5104062;28;20019;-74
2023/03/11 06:42:19;;;;;;;3.53;1.75;;;;;;;11.50;59.59;93240.56;5103243;28;20071;-75
2023/03/11 06:44:48;;;;;;;3.75;1.45;;;;;;;11.56;59.92;93251.63;5103222;28;20113;-76
2023/03/11 06:47:13;;;;;;;4.07;1.80;;;;;;;11.57;59.83;93242.88;5103160;28;20063;-76
2023/03/11 06:49:40;;;;;;;3.70;2.00;;;;;;;11.59;59.69;93239.66;5104774;28;20101;-76
2023/03/11 06:52:07;;;;;;;3.70;2.30;;;;;;;11.63;59.82;93240.19;5104475;28;20107;-76
2023/03/11 06:54:32;;;;;;;6.03;3.03;;;;;;;11.65;59.61;93248.72;5103488;28;20038;-75
2023/03/11 06:56:57;;;;;;;4.60;3.08;;;;;;;11.66;59.77;93242.75;5102803;28;20027;-76
2023/03/11 06:59:23;;;;;;;4.95;3.30;;;;;;;11.75;59.59;93254.81;5104745;28;20031;-76
2023/03/11 07:01:48;;;;;;;4.38;2.90;;;;;;;11.75;59.52;93252.06;5104252;28;20111;-77
2023/03/11 07:04:14;;;;;;;4.18;2.75;;;;;;;11.74;59.24;93250.56;5104651;28;20016;-77
2023/03/11 07:06:40;;;;;;;3.42;2.00;;;;;;;11.70;59.42;93248.78;5104421;28;20024;-77
2023/03/11 07:09:06;;;;;;;3.85;2.10;;;;;;;11.46;59.31;93239.25;5102895;28;20513;-76
2023/03/11 07:11:31;;;;;;;3.67;1.83;;;;;;;11.55;59.09;93233.59;5104427;28;20023;-75
2023/03/11 07:13:56;;;;;;;2.55;1.42;;;;;;;11.59;58.65;93237.66;5102403;28;20057;-76
2023/03/11 07:16:25;;;;;;;2.45;1.52;;;;;;;11.64;58.76;93227.94;5103253;28;20024;-78
2023/03/11 07:18:51;;;;;;;7.75;4.43;;;;;;;11.65;58.25;93238.47;5103139;28;20508;-75
2023/03/11 07:21:18;;;;;;;11.05;6.05;;;;;;;11.72;57.26;93237.28;5104291;28;20028;-76
2023/03/11 07:23:44;;;;;;;15.80;8.43;;;;;;;11.80;57.45;93234.84;5105756;28;20064;-76
2023/03/11 07:26:12;;;;;;;6.28;3.42;;;;;;;11.81;57.35;93234.38;5104495;28;20463;-76
2023/03/11 07:28:37;;;;;;;3.17;2.10;;;;;;;11.83;57.08;93231.94;5105063;28;20151;-78
2023/03/11 07:31:11;;;;;;;2.83;1.45;;;;;;;11.90;56.06;93225.97;5106168;28;20064;-75
2023/03/11 07:33:37;;;;;;;2.67;1.75;;;;;;;11.98;55.58;93217.28;5108377;28;20024;-77
2023/03/11 07:36:22;;;;;;;2.00;1.20;;;;;;;12.17;55.46;93221.97;5108723;28;20031;-76
2023/03/11 07:38:53;;;;;;;3.60;1.73;;;;;;;12.46;54.65;93215.41;5107932;28;20024;-77
2023/03/11 07:41:18;;;;;;;3.15;1.80;;;;;;;12.67;54.75;93209.78;5107746;28;20543;-77
2023/03/11 07:43:43;;;;;;;4.90;2.20;;;;;;;12.84;54.54;93207.88;5108005;28;20024;-77
2023/03/11 07:46:12;;;;;;;3.35;1.95;;;;;;;12.97;54.51;93196.44;5107639;28;20023;-77
2023/03/11 07:48:39;;;;;;;3.92;2.05;;;;;;;13.02;53.04;93190.94;5106179;28;20030;-77
2023/03/11 07:51:10;;;;;;;3.17;1.60;;;;;;;13.08;52.96;93185.44;5106423;28;20035;-76
2023/03/11 07:53:36;;;;;;;2.80;1.27;;;;;;;13.22;52.79;93184.50;5106581;28;20023;-78
2023/03/11 07:56:02;;;;;;;3.83;2.45;;;;;;;13.34;52.44;93179.78;5107514;28;20035;-78
2023/03/11 07:58:27;;;;;;;3.47;2.10;;;;;;;13.50;51.54;93181.84;5106189;28;20023;-76
2023/03/11 08:00:55;;;;;;;2.85;1.48;;;;;;;13.64;51.07;93168.31;5106335;28;20042;-77
2023/03/11 08:03:21;;;;;;;2.28;1.55;;;;;;;13.79;50.33;93172.38;5105914;28;20020;-78
2023/03/11 08:05:47;;;;;;;2.33;1.30;;;;;;;13.83;50.74;93169.38;5107351;28;20494;-75
2023/03/11 08:08:12;;;;;;;2.55;1.13;;;;;;;14.00;48.23;93158.34;5107295;27;20035;-77
2023/03/11 08:10:38;;;;;;;1.45;1.10;;;;;;;14.18;48.56;93160.59;5106802;28;20063;-77
2023/03/11 08:13:04;;;;;;;2.00;0.90;;;;;;;14.31;48.46;93147.00;5105877;28;20027;-75
2023/03/11 08:15:29;;;;;;;4.15;1.17;;;;;;;14.50;48.04;93133.44;5106047;28;20019;-76
2023/03/11 08:17:54;;;;;;;2.05;0.80;;;;;;;14.71;46.87;93135.91;5107358;28;20047;-77
2023/03/11 08:20:20;;;;;;;1.98;1.00;;;;;;;14.92;46.77;93128.06;5105403;28;20024;-77
2023/03/11 08:22:45;;;;;;;2.60;1.20;;;;;;;15.08;46.85;93122.47;5106826;28;20457;-77
2023/03/11 08:25:11;;;;;;;2.15;1.13;;;;;;;15.45;45.62;93121.25;5106676;28;20015;-74
2023/03/11 08:27:37;;;;;;;9.15;3.47;;;;;;;15.58;45.23;93113.13;5105286;28;20015;-80
2023/03/11 08:30:04;;;;;;;3.88;1.80;;;;;;;15.82;44.39;93111.72;5105378;28;20042;-75
2023/03/11 08:32:30;;;;;;;4.55;1.30;;;;;;;15.83;43.54;93108.47;5105359;28;20024;-76
2023/03/11 08:34:56;;;;;;;4.32;1.67;;;;;;;16.03;42.92;93101.00;5107055;28;20028;-76
2023/03/11 08:37:22;;;;;;;4.50;1.42;;;;;;;16.28;42.67;93112.88;5105275;28;20334;-74
2023/03/11 08:39:47;;;;;;;3.40;1.20;;;;;;;16.48;41.82;93106.91;5107475;28;20115;-74
2023/03/11 08:42:12;;;;;;;1.98;1.13;;;;;;;16.76;41.15;93106.63;5106260;28;20047;-75
2023/03/11 08:44:38;;;;;;;3.38;1.00;;;;;;;16.91;39.42;93103.44;5105188;28;20020;-73
2023/03/11 08:47:03;;;;;;;2.83;1.10;;;;;;;16.82;39.72;93087.91;5106525;28;20107;-74
2023/03/11 08:49:29;;;;;;;1.77;1.00;;;;;;;17.03;39.14;93098.50;5106342;28;20478;-75
2023/03/11 08:51:54;;;;;;;1.88;1.00;;;;;;;17.10;38.64;93084.03;5088052;28;20072;-74
2023/03/11 08:54:20;;;;;;;1.65;1.10;;;;;;;17.30;38.50;93088.31;5105776;28;20470;-74
2023/03/11 08:56:46;;;;;;;5.50;1.20;;;;;;;17.12;38.35;93092.59;5087096;28;20028;-74
2023/03/11 08:59:12;;;;;;;1.08;0.70;;;;;;;17.12;37.30;93112.78;5104894;28;20046;-73
2023/03/11 09:01:38;;;;;;;1.70;0.90;;;;;;;17.17;38.28;93081.41;5104689;28;20047;-75
2023/03/11 09:04:03;;;;;;;3.40;1.05;;;;;;;17.48;37.85;93084.78;5105160;28;20024;-76
2023/03/11 09:06:29;;;;;;;1.88;1.00;;;;;;;17.91;37.99;93081.91;5104488;28;20024;-76
2023/03/11 09:08:55;;;;;;;1.20;0.70;;;;;;;18.38;36.84;93089.72;5103990;28;20035;-74
2023/03/11 09:11:21;;;;;;;1.00;0.75;;;;;;;18.58;36.30;93080.03;5103883;27;20031;-76
2023/03/11 09:13:47;;;;;;;3.40;0.98;;;;;;;18.56;35.89;93079.81;5106034;28;20413;-75
2023/03/11 09:16:19;;;;;;;1.80;0.77;;;;;;;18.57;35.75;93075.72;5104702;28;20019;-74
2023/03/11 09:18:45;;;;;;;3.03;0.95;;;;;;;18.47;36.06;93074.66;5103912;27;20024;-74
2023/03/11 09:21:10;;;;;;;2.15;0.95;;;;;;;18.30;36.85;93074.97;5103545;28;20035;-76
2023/03/11 09:23:36;;;;;;;2.50;1.05;;;;;;;18.68;36.78;93069.25;5103629;27;20023;-76
2023/03/11 09:26:02;;;;;;;1.77;0.93;;;;;;;18.98;35.33;93061.34;5102682;28;20031;-72
2023/03/11 09:28:28;;;;;;;3.20;1.13;;;;;;;19.08;34.12;93072.75;5101872;28;20035;-74
2023/03/11 09:30:53;;;;;;;1.70;0.90;;;;;;;19.35;34.44;93071.44;5101753;28;20422;-73
2023/03/11 09:33:19;;;;;;;3.80;1.50;;;;;;;19.41;33.69;93054.59;5104493;28;20366;-74
2023/03/11 09:35:44;;;;;;;3.63;1.67;;;;;;;19.51;33.99;93061.22;5104047;28;20034;-73
2023/03/11 09:38:10;;;;;;;1.67;0.90;;;;;;;19.49;33.86;93051.88;5103970;28;20023;-73
2023/03/11 09:40:52;;;;;;;0.93;0.75;;;;;;;19.23;34.60;93069.44;5104897;28;20153;-74
2023/03/11 09:43:20;;;;;;;1.85;1.00;;;;;;;18.92;34.55;93052.31;5105609;28;20032;-72
2023/03/11 09:45:54;;;;;;;1.27;0.60;;;;;;;18.58;34.90;93055.75;5105364;28;20628;-72
2023/03/11 09:48:31;;;;;;;2.50;0.80;;;;;;;18.43;36.05;93044.38;5103864;28;20023;-72
2023/03/11 09:51:07;;;;;;;1.40;0.82;;;;;;;18.47;34.91;93041.28;5086478;28;20024;-73
2023/03/11 09:53:46;;;;;;;3.25;1.10;;;;;;;18.66;34.89;93038.41;5103250;28;20027;-75
2023/03/11 09:56:17;;;;;;;3.60;1.10;;;;;;;19.06;33.30;93056.59;5086860;28;20096;-75
2023/03/11 09:58:46;;;;;;;4.30;0.73;;;;;;;19.17;32.63;93049.31;5103743;28;20039;-74
2023/03/11 10:01:15;;;;;;;2.55;1.10;;;;;;;19.45;31.62;93040.34;5103896;28;20700;-74
2023/03/11 10:03:40;;;;;;;2.08;1.10;;;;;;;19.98;31.75;93048.53;5103326;28;20115;-73
2023/03/11 10:06:23;;;;;;;1.38;0.90;;;;;;;20.27;31.32;93052.13;5103543;28;20145;-76
2023/03/11 10:08:51;;;;;;;2.53;0.82;;;;;;;21.07;30.60;93060.69;5103386;28;20366;-75
2023/03/11 10:11:44;;;;;;;1.80;0.75;;;;;;;20.77;28.95;93056.44;5105007;28;20077;-75
2023/03/11 10:14:27;;;;;;;1.40;0.70;;;;;;;20.97;28.58;93063.22;5105198;28;20036;-76
2023/03/11 10:16:58;;;;;;;;;;;;;;;20.72;29.12;93062.16;5105508;28;20024;-74
2023/03/11 10:19:53;;;;;;;1.75;0.90;;;;;;;21.14;28.67;93074.69;5103340;28;19912;-76
2023/03/11 10:22:35;;;;;;;2.70;0.75;;;;;;;21.47;29.15;93075.06;5074858;28;20039;-75
2023/03/11 10:25:09;;;;;;;2.10;0.70;;;;;;;21.01;29.89;93074.81;5104873;28;20028;-74
2023/03/11 10:27:48;;;;;;;2.33;1.13;;;;;;;20.76;31.31;93080.06;5103414;28;20032;-75
2023/03/11 10:30:34;;;;;;;4.00;1.70;;;;;;;20.43;32.13;93074.03;5103397;28;20054;-73
2023/03/11 10:33:06;;;;;;;3.63;0.95;;;;;;;20.03;33.01;93072.75;5104801;28;20432;-74
2023/03/11 10:35:35;;;;;;;3.53;1.40;;;;;;;19.75;33.21;93068.56;5103450;28;20020;-74
2023/03/11 10:38:07;;;;;;;3.28;1.90;;;;;;;19.30;33.30;93066.72;5105034;28;20031;-73
2023/03/11 10:40:35;;;;;;;1.42;0.95;;;;;;;19.05;34.35;93059.94;5102754;28;20027;-73
2023/03/11 10:43:10;;;;;;;2.38;0.70;;;;;;;18.64;34.31;93058.41;5103198;28;20047;-74
2023/03/11 10:45:40;;;;;;;2.30;0.82;;;;;;;17.98;35.23;93064.59;5102953;28;20508;-73
2023/03/11 10:48:14;;;;;;;3.10;1.00;;;;;;;17.77;35.48;93061.66;5086545;28;20020;-74
2023/03/11 10:50:54;;;;;;;1.70;1.20;;;;;;;17.57;37.84;93070.53;5103645;28;20031;-74
2023/03/11 10:53:20;;;;;;;4.30;1.25;;;;;;;17.55;38.94;93081.41;5105492;28;20043;-74
2023/03/11 10:55:54;;;;;;;2.20;1.23;;;;;;;17.40;39.45;93084.66;5102958;28;20032;-76
2023/03/11 10:58:28;;;;;;;2.15;1.20;;;;;;;17.22;39.01;93080.59;5103357;28;20116;-73
2023/03/11 11:01:13;;;;;;;1.85;0.90;;;;;;;17.19;38.51;93083.66;5085927;28;20024;-74
2023/03/11 11:03:44;;;;;;;1.63;0.90;;;;;;;17.62;37.23;93097.47;5105786;28;20016;-73
2023/03/11 11:06:26;;;;;;;1.05;0.73;;;;;;;18.58;35.31;93088.38;5108628;28;20027;-74
2023/03/11 11:09:13;;;;;;;3.65;1.27;;;;;;;19.41;33.88;93084.50;5106811;28;20020;-72
2023/03/11 11:11:39;;;;;;;2.67;1.00;;;;;;;19.27;34.80;93087.31;5107816;28;20146;-73
2023/03/11 11:14:06;;;;;;;2.13;1.23;;;;;;;21.09;31.58;93080.44;5106928;28;20103;-73
2023/03/11 11:16:33;;;;;;;3.50;2.30;;;;;;;23.46;28.63;93077.97;5107948;28;20134;-73
2023/03/11 11:19:10;;;;;;;2.60;1.05;;;;;;;24.18;26.91;93068.06;5108157;28;20081;-73
2023/03/11 11:21:38;;;;;;;1.85;0.80;;;;;;;22.10;30.25;93049.53;5106729;28;20028;-75
2023/03/11 11:24:23;;;;;;;1.58;1.00;;;;;;;22.36;30.13;93043.56;5105987;28;20016;-75
2023/03/11 11:27:05;;;;;;;1.95;1.10;;;;;;;21.71;31.14;93043.06;5104447;28;20028;-74
2023/03/11 11:29:31;;;;;;;2.63;1.60;;;;;;;21.14;32.33;93034.84;5106168;28;20110;-75
2023/03/11 11:32:18;;;;;;;2.88;1.10;;;;;;;20.53;32.76;93031.69;5105823;28;20520;-74
2023/03/11 11:35:13;;;;;;;3.83;1.70;;;;;;;19.80;33.37;93031.44;5107826;28;20024;-74
2023/03/11 11:37:43;;;;;;;5.07;1.83;;;;;;;19.45;33.32;93020.84;5047654;28;20090;-76